Time;durP1;ratioP1;P1;durP2;ratioP2;P2;SDS_P1;SDS_P2;PMS_P1;PMS_P2;Temp;Humidity;BMP_temperature;BMP_pressure;BME280_temperature;BME280_humidity;BME280_pressure;Samples;Min_cycle;Max_cycle;Signal;HPM_P1;HPM_P2
2022/12/10 00:02:24;;;;;;;1.75;1.65;;;;;;;1.87;71.67;100228.28;5148079;28;20608;-83
2022/12/10 00:04:55;;;;;;;13.68;2.47;;;;;;;1.84;71.82;100228.28;5149811;28;20041;-83
2022/12/10 00:07:25;;;;;;;2.22;2.03;;;;;;;1.72;72.23;100228.28;5145211;28;20117;-82
2022/12/10 00:09:56;;;;;;;0.88;0.88;;;;;;;1.74;71.49;100223.97;5149587;28;20171;-81
2022/12/10 00:12:26;;;;;;;1.27;1.27;;;;;;;1.67;72.33;100228.25;5153805;28;20441;-81
2022/12/10 00:14:57;;;;;;;0.60;0.60;;;;;;;1.70;72.04;100222.22;5149242;28;20486;-84
2022/12/10 00:17:28;;;;;;;1.55;1.45;;;;;;;1.65;71.92;100229.13;5139487;28;20035;-82
2022/12/10 00:19:58;;;;;;;1.85;1.75;;;;;;;1.63;71.66;100225.66;5150314;28;20042;-85
2022/12/10 00:22:29;;;;;;;2.35;2.15;;;;;;;1.59;72.21;100229.13;5147365;28;20049;-83
2022/12/10 00:24:59;;;;;;;3.53;3.03;;;;;;;1.54;72.28;100232.53;5148593;28;20026;-83
2022/12/10 00:27:31;;;;;;;1.48;1.38;;;;;;;1.56;72.34;100236.00;5147919;28;20407;-83
2022/12/10 00:30:12;;;;;;;0.95;0.95;;;;;;;1.57;72.07;100236.88;5141073;28;20177;-83
2022/12/10 00:32:42;;;;;;;2.85;2.60;;;;;;;1.56;72.18;100236.00;5145245;28;20050;-82
2022/12/10 00:35:14;;;;;;;1.17;1.17;;;;;;;1.56;72.19;100235.16;5147319;28;20050;-82
2022/12/10 00:37:45;;;;;;;2.92;2.17;;;;;;;1.53;71.77;100240.31;5164346;28;20026;-82
2022/12/10 00:40:15;;;;;;;2.33;2.22;;;;;;;1.50;72.27;100238.59;5131351;28;20129;-84
2022/12/10 00:42:46;;;;;;;2.83;1.95;;;;;;;1.47;72.00;100235.97;5148880;28;20066;-82
2022/12/10 00:45:16;;;;;;;2.00;1.90;;;;;;;1.52;71.80;100234.28;5145607;28;20029;-85
2022/12/10 00:47:47;;;;;;;1.80;1.70;;;;;;;1.48;72.17;100235.13;5152833;28;20050;-82
2022/12/10 00:50:18;;;;;;;2.15;2.00;;;;;;;1.48;71.57;100235.13;5167643;28;20039;-83
2022/12/10 00:52:48;;;;;;;0.52;0.52;;;;;;;1.48;71.37;100232.53;5151495;28;20053;-86
2022/12/10 00:55:18;;;;;;;1.05;1.05;;;;;;;1.39;71.72;100242.84;5149763;28;20097;-82
2022/12/10 00:57:49;;;;;;;1.83;1.73;;;;;;;1.34;71.86;100236.81;5141791;28;20023;-84
2022/12/10 01:00:20;;;;;;;2.03;1.90;;;;;;;1.34;72.21;100237.66;5151987;28;20137;-82
2022/12/10 01:02:50;;;;;;;1.05;1.05;;;;;;;1.25;71.91;100243.69;5150713;28;20042;-86
2022/12/10 01:05:21;;;;;;;2.50;2.00;;;;;;;1.33;72.05;100243.69;5150056;28;20035;-82
2022/12/10 01:07:53;;;;;;;1.08;1.08;;;;;;;1.33;71.62;100243.69;5148237;28;20033;-82
2022/12/10 01:10:24;;;;;;;1.13;1.13;;;;;;;1.32;71.42;100241.13;5147815;28;20027;-80
2022/12/10 01:12:54;;;;;;;0.60;0.60;;;;;;;1.25;71.54;100240.22;5137461;28;20041;-82
2022/12/10 01:15:26;;;;;;;1.27;1.27;;;;;;;1.23;71.38;100232.47;5145171;28;20120;-83
2022/12/10 01:17:56;;;;;;;5.15;2.03;;;;;;;1.21;71.41;100238.50;5140577;28;20616;-81
2022/12/10 01:20:27;;;;;;;1.38;1.38;;;;;;;1.15;71.63;100244.50;5165645;28;20030;-83
2022/12/10 01:22:57;;;;;;;1.55;1.52;;;;;;;1.15;71.63;100248.81;5151801;28;20073;-83
2022/12/10 01:25:28;;;;;;;1.67;1.58;;;;;;;1.13;71.62;100253.13;5147417;28;20034;-81
2022/12/10 01:27:59;;;;;;;1.67;1.58;;;;;;;1.15;71.75;100254.84;5161298;28;20092;-83
2022/12/10 01:30:32;;;;;;;2.00;1.00;;;;;;;1.15;71.44;100259.16;5145209;28;20033;-84
2022/12/10 01:33:03;;;;;;;2.00;1.75;;;;;;;1.08;71.52;100255.69;5127992;28;20038;-81
2022/12/10 01:35:37;;;;;;;2.38;1.95;;;;;;;1.05;71.83;100255.66;5144378;28;20544;-83
2022/12/10 01:38:10;;;;;;;0.70;0.70;;;;;;;1.05;71.56;100250.47;5154627;28;20102;-82
2022/12/10 01:40:41;;;;;;;2.28;2.08;;;;;;;1.05;71.61;100259.13;5160462;28;20027;-80
2022/12/10 01:43:14;;;;;;;2.67;2.17;;;;;;;1.06;71.59;100268.59;5128178;28;20062;-82
2022/12/10 01:45:45;;;;;;;1.77;1.67;;;;;;;1.07;71.76;100275.50;5141460;28;20030;-81
2022/12/10 01:48:15;;;;;;;0.70;0.70;;;;;;;0.94;71.61;100277.16;5160088;28;20610;-83
2022/12/10 01:50:46;;;;;;;2.42;2.33;;;;;;;0.98;71.50;100277.16;5163780;28;20533;-83
2022/12/10 01:53:16;;;;;;;1.27;1.27;;;;;;;0.97;71.33;100280.59;5145814;28;20578;-82
2022/12/10 01:55:50;;;;;;;2.60;2.40;;;;;;;0.94;71.14;100277.16;5143216;28;20034;-81
2022/12/10 01:58:20;;;;;;;1.58;1.52;;;;;;;0.94;71.34;100278.84;5144638;28;20478;-83
2022/12/10 02:01:09;;;;;;;0.85;0.85;;;;;;;0.92;71.46;100284.03;5144901;28;20073;-82
2022/12/10 02:04:31;;;;;;;2.63;2.47;;;;;;;0.91;71.64;100282.28;5162362;28;20556;-83
2022/12/10 02:07:06;;;;;;;3.72;3.53;;;;;;;0.83;71.34;100291.72;5111558;28;20259;-83
2022/12/10 02:09:45;;;;;;;1.33;1.33;;;;;;;0.80;71.77;100286.53;5145087;28;20042;-83
2022/12/10 02:12:33;;;;;;;3.80;3.53;;;;;;;0.74;71.67;100287.38;5140701;28;20049;-84
2022/12/10 02:15:17;;;;;;;1.95;1.80;;;;;;;0.84;71.31;100284.81;5149016;28;20053;-83
2022/12/10 02:18:10;;;;;;;;;;;;;;;0.82;71.34;100286.56;5144958;28;20034;-83
2022/12/10 02:20:49;;;;;;;2.25;2.15;;;;;;;0.82;71.24;100286.56;5148598;28;20610;-81
2022/12/10 02:23:20;;;;;;;6.05;4.20;;;;;;;0.77;71.28;100289.09;5135850;28;20050;-82
2022/12/10 02:26:31;;;;;;;2.30;2.20;;;;;;;0.82;71.41;100292.56;5165874;28;20026;-83
2022/12/10 02:29:14;;;;;;;0.60;0.60;;;;;;;0.83;70.68;100283.97;5143836;28;20039;-82
2022/12/10 02:31:47;;;;;;;;;;;;;;;0.79;71.26;100287.38;5164099;28;20270;-82
2022/12/10 02:34:20;;;;;;;2.10;2.00;;;;;;;0.78;70.78;100280.50;5151061;28;19941;-81
2022/12/10 02:36:54;;;;;;;2.00;1.42;;;;;;;0.70;70.92;100284.75;5166064;28;20042;-81
2022/12/10 02:39:29;;;;;;;0.90;0.90;;;;;;;0.60;71.16;100282.13;5153244;28;20026;-81
2022/12/10 02:42:03;;;;;;;0.68;0.68;;;;;;;0.59;71.06;100287.25;5165371;28;20029;-82
2022/12/10 02:44:36;;;;;;;0.63;0.60;;;;;;;0.61;71.39;100290.72;5165904;28;20033;-80
2022/12/10 02:47:08;;;;;;;1.33;1.30;;;;;;;0.58;71.37;100288.97;5159065;28;20026;-81
2022/12/10 02:49:40;;;;;;;3.17;2.95;;;;;;;0.53;71.41;100280.34;5163322;28;20055;-81
2022/12/10 02:52:17;;;;;;;1.50;1.48;;;;;;;0.58;71.45;100294.13;5185053;28;20052;-83
2022/12/10 02:54:49;;;;;;;2.42;2.25;;;;;;;0.59;71.02;100295.00;5166843;28;20011;-84
2022/12/10 02:57:28;;;;;;;2.10;1.95;;;;;;;0.54;71.34;100300.13;5167416;28;20033;-82
2022/12/10 03:00:02;;;;;;;1.83;1.73;;;;;;;0.53;71.26;100301.00;5162437;28;20061;-82
2022/12/10 03:02:53;;;;;;;3.05;2.85;;;;;;;0.54;70.82;100301.84;5144024;28;20038;-82
2022/12/10 03:05:34;;;;;;;2.08;1.98;;;;;;;0.52;70.85;100294.09;5142956;28;20042;-82
2022/12/10 03:08:18;;;;;;;4.00;3.65;;;;;;;0.51;71.25;100297.53;5164335;28;20034;-83
2022/12/10 03:11:01;;;;;;;;;;;;;;;0.55;70.89;100307.00;5158839;28;20114;-83
2022/12/10 03:13:38;;;;;;;1.75;1.65;;;;;;;0.47;71.25;100316.41;5128394;28;20571;-82
2022/12/10 03:16:10;;;;;;;4.78;2.13;;;;;;;0.53;71.18;100306.16;5166498;28;20508;-83
2022/12/10 03:18:42;;;;;;;1.30;1.30;;;;;;;0.51;71.20;100317.31;5155723;28;20026;-83
2022/12/10 03:21:15;;;;;;;0.93;0.93;;;;;;;0.51;71.84;100317.31;5170207;28;20026;-81
2022/12/10 03:23:47;;;;;;;2.67;2.50;;;;;;;0.52;71.34;100316.47;5150014;28;20548;-81
2022/12/10 03:26:19;;;;;;;10.27;3.78;;;;;;;0.53;71.46;100320.78;5143534;28;20034;-82
2022/12/10 03:28:54;;;;;;;0.98;0.98;;;;;;;0.54;71.25;100318.19;5147644;28;20708;-81
2022/12/10 03:31:24;;;;;;;0.77;0.77;;;;;;;0.54;71.78;100323.34;5127621;28;20026;-81
2022/12/10 03:33:55;;;;;;;2.78;2.58;;;;;;;0.51;71.67;100325.06;5151836;28;20080;-82
2022/12/10 03:36:27;;;;;;;3.13;2.92;;;;;;;0.50;71.82;100325.94;5174592;28;20030;-82
2022/12/10 03:38:58;;;;;;;1.40;1.40;;;;;;;0.40;72.50;100325.84;5157674;28;20030;-81
2022/12/10 03:41:29;;;;;;;4.82;4.38;;;;;;;0.34;72.89;100330.09;5154889;28;20792;-84
2022/12/10 03:44:00;;;;;;;3.70;3.35;;;;;;;0.43;72.79;100331.03;5150197;28;20046;-83
2022/12/10 03:46:31;;;;;;;3.72;2.08;;;;;;;0.49;73.13;100330.22;5150967;28;20050;-82
2022/12/10 03:49:03;;;;;;;1.55;1.45;;;;;;;0.41;72.67;100326.69;5129354;28;20061;-82
2022/12/10 03:51:33;;;;;;;2.85;2.35;;;;;;;0.55;72.39;100322.50;5148981;28;20034;-83
2022/12/10 03:54:04;;;;;;;1.42;1.38;;;;;;;0.55;72.39;100324.25;5148229;28;20046;-83
2022/12/10 03:56:34;;;;;;;0.90;0.90;;;;;;;0.68;72.16;100320.88;5137658;28;20042;-82
2022/12/10 03:59:05;;;;;;;3.38;3.10;;;;;;;0.69;71.93;100324.34;5163915;28;20050;-82
2022/12/10 04:01:35;;;;;;;2.83;2.63;;;;;;;0.55;72.28;100330.25;5146236;28;20100;-81
2022/12/10 04:04:06;;;;;;;3.58;3.22;;;;;;;0.61;72.33;100320.00;5139644;28;20042;-83
2022/12/10 04:06:39;;;;;;;1.50;1.50;;;;;;;0.45;73.05;100323.31;5150227;28;20038;-82
2022/12/10 04:09:11;;;;;;;4.40;3.75;;;;;;;0.51;73.25;100328.50;5147864;28;20030;-82
2022/12/10 04:11:43;;;;;;;2.10;2.00;;;;;;;0.55;72.45;100330.25;5163473;28;20050;-82
2022/12/10 04:17:03;;;;;;;2.13;2.03;;;;;;;0.52;73.85;100330.25;5148975;28;20030;-82
2022/12/10 04:19:33;;;;;;;1.17;1.17;;;;;;;0.36;73.86;100328.41;5132486;28;20041;-82
2022/12/10 04:27:42;;;;;;;2.63;2.35;;;;;;;0.60;73.20;100327.72;5167242;28;20119;-83
2022/12/10 04:30:13;;;;;;;6.35;3.38;;;;;;;0.58;73.01;100330.28;5163122;28;20050;-82
2022/12/10 04:32:44;;;;;;;0.57;0.57;;;;;;;0.54;73.35;100331.09;5132322;28;20529;-82
2022/12/10 04:35:14;;;;;;;0.82;0.82;;;;;;;0.59;73.68;100326.84;5148141;28;20094;-82
2022/12/10 04:37:45;;;;;;;6.20;5.57;;;;;;;0.51;73.81;100327.63;5146776;28;20114;-82
2022/12/10 04:40:16;;;;;;;1.30;1.30;;;;;;;0.47;74.12;100326.75;5146841;28;20045;-80
2022/12/10 04:42:46;;;;;;;5.00;3.75;;;;;;;0.52;73.88;100324.19;5138949;28;20030;-82
2022/12/10 04:45:17;;;;;;;0.68;0.68;;;;;;;0.52;73.61;100329.38;5163377;28;20098;-81
2022/12/10 04:47:47;;;;;;;2.17;2.08;;;;;;;0.65;73.53;100335.50;5161504;28;20421;-82
2022/12/10 04:50:18;;;;;;;1.48;1.48;;;;;;;0.61;74.09;100338.06;5146996;28;20693;-81
2022/12/10 04:52:48;;;;;;;4.05;3.42;;;;;;;0.71;73.55;100327.78;5149634;28;20047;-82
2022/12/10 04:55:19;;;;;;;5.22;2.72;;;;;;;0.63;73.89;100333.75;5146167;28;20061;-82
2022/12/10 04:57:49;;;;;;;2.95;2.75;;;;;;;0.60;73.72;100328.59;5144277;28;20057;-82
2022/12/10 05:00:20;;;;;;;5.40;3.40;;;;;;;0.79;73.46;100318.38;5143538;28;20100;-82
2022/12/10 05:02:50;;;;;;;7.20;3.25;;;;;;;0.68;73.72;100323.47;5126596;28;20062;-83
2022/12/10 05:05:21;;;;;;;4.60;4.05;;;;;;;0.59;74.20;100326.84;5146153;28;20037;-82
2022/12/10 05:07:51;;;;;;;2.42;2.33;;;;;;;0.56;74.67;100337.16;5161129;28;20101;-84
2022/12/10 05:10:22;;;;;;;4.72;3.83;;;;;;;0.52;73.94;100337.09;5145520;28;20175;-82
2022/12/10 05:12:52;;;;;;;3.90;3.40;;;;;;;0.38;75.22;100335.28;5127248;28;20034;-82
2022/12/10 05:15:23;;;;;;;5.85;4.18;;;;;;;0.42;75.18;100333.59;5162541;28;20114;-82
2022/12/10 05:17:53;;;;;;;2.65;2.45;;;;;;;0.40;75.61;100335.28;5126562;28;20391;-83
2022/12/10 05:20:24;;;;;;;3.08;2.92;;;;;;;0.49;74.72;100334.53;5146669;28;20058;-81
2022/12/10 05:25:52;;;;;;;1.83;1.73;;;;;;;0.27;75.75;100334.31;5146625;28;20038;-82
2022/12/10 05:28:23;;;;;;;2.47;2.30;;;;;;;0.35;75.29;100331.81;5145980;28;20046;-83
2022/12/10 05:30:54;;;;;;;2.90;2.70;;;;;;;0.37;75.71;100330.13;5129728;28;20022;-82
2022/12/10 05:33:25;;;;;;;2.30;2.20;;;;;;;0.50;75.34;100329.38;5146631;28;20058;-81
2022/12/10 05:36:01;;;;;;;3.65;1.77;;;;;;;0.51;74.80;100327.63;5142894;28;20030;-82
2022/12/10 05:38:33;;;;;;;3.00;2.88;;;;;;;0.45;74.99;100324.16;5160688;28;20667;-82
2022/12/10 05:41:28;;;;;;;2.60;2.40;;;;;;;0.58;74.80;100338.03;5158088;28;20125;-82
2022/12/10 05:43:59;;;;;;;2.70;2.60;;;;;;;0.52;75.27;100340.56;5152606;28;20065;-83
2022/12/10 05:46:32;;;;;;;2.83;2.67;;;;;;;0.30;75.66;100334.38;5165987;28;20365;-83
2022/12/10 05:49:04;;;;;;;5.80;3.45;;;;;;;0.04;77.20;100337.56;5133437;28;20042;-82
2022/12/10 05:51:37;;;;;;;1.85;1.80;;;;;;;-0.11;77.08;100338.25;5131495;28;20519;-82
2022/12/10 05:54:09;;;;;;;0.63;0.63;;;;;;;0.11;76.54;100343.66;5163234;28;20041;-81
2022/12/10 05:56:40;;;;;;;2.85;2.65;;;;;;;-0.17;77.94;100344.25;5128311;28;20606;-81
2022/12/10 05:59:10;;;;;;;1.67;1.63;;;;;;;-0.14;77.96;100342.53;5145670;28;20094;-80
2022/12/10 06:01:41;;;;;;;2.17;1.75;;;;;;;-0.01;77.64;100345.25;5141160;28;20100;-80
2022/12/10 06:04:12;;;;;;;2.72;2.55;;;;;;;0.07;76.64;100350.50;5160597;28;20046;-80
2022/12/10 06:06:42;;;;;;;10.90;3.47;;;;;;;0.15;75.99;100351.44;5145921;28;20034;-80
2022/12/10 06:09:13;;;;;;;1.65;1.60;;;;;;;0.26;75.70;100354.13;5146671;28;20034;-80
2022/12/10 06:11:44;;;;;;;3.03;2.67;;;;;;;0.31;75.66;100355.00;5143418;28;20574;-82
2022/12/10 06:14:15;;;;;;;0.95;0.95;;;;;;;0.42;75.44;100356.84;5154712;28;20062;-81
2022/12/10 06:16:46;;;;;;;3.97;3.67;;;;;;;0.24;76.29;100358.38;5129818;28;20111;-82
2022/12/10 06:19:16;;;;;;;1.80;1.70;;;;;;;0.26;75.64;100364.44;5144259;28;20130;-80
2022/12/10 06:21:46;;;;;;;2.47;2.38;;;;;;;0.33;75.59;100359.31;5147699;28;20029;-78
2022/12/10 06:24:17;;;;;;;0.98;0.98;;;;;;;0.41;76.02;100355.09;5144295;28;20046;-81
2022/12/10 06:26:48;;;;;;;1.98;1.40;;;;;;;0.50;75.24;100365.50;5124222;28;20679;-80
2022/12/10 06:29:18;;;;;;;1.58;1.48;;;;;;;0.37;76.22;100364.53;5140258;28;20107;-79
2022/12/10 06:31:49;;;;;;;5.10;2.65;;;;;;;0.14;76.70;100366.88;5160750;28;20092;-80
2022/12/10 06:34:19;;;;;;;4.10;3.85;;;;;;;0.23;76.83;100374.72;5159612;28;20536;-80
2022/12/10 06:36:49;;;;;;;2.00;1.90;;;;;;;0.34;76.18;100372.22;5160036;28;20109;-80
2022/12/10 06:39:20;;;;;;;2.63;2.50;;;;;;;0.36;75.69;100382.59;5158156;28;20030;-79
2022/12/10 06:41:50;;;;;;;3.15;2.85;;;;;;;0.54;75.08;100377.56;5141676;28;20038;-80
2022/12/10 06:44:21;;;;;;;3.55;3.30;;;;;;;0.49;75.48;100379.25;5145328;28;20389;-80
2022/12/10 06:46:51;;;;;;;5.82;3.22;;;;;;;0.50;75.68;100381.00;5122060;28;20338;-83
2022/12/10 06:49:22;;;;;;;3.33;2.80;;;;;;;0.42;75.62;100386.06;5148191;28;20066;-83
2022/12/10 06:51:52;;;;;;;1.40;1.40;;;;;;;0.45;75.52;100386.13;5162844;28;20038;-80
2022/12/10 06:54:23;;;;;;;2.95;2.75;;;;;;;0.53;75.51;100383.63;5143269;28;20050;-83
2022/12/10 06:56:53;;;;;;;3.47;3.28;;;;;;;0.52;74.96;100387.03;5138279;28;20050;-82
2022/12/10 06:59:24;;;;;;;3.63;3.33;;;;;;;0.51;75.00;100385.31;5160001;28;20027;-81
2022/12/10 07:01:55;;;;;;;3.40;3.20;;;;;;;0.65;75.42;100390.59;5157938;28;20030;-81
2022/12/10 07:04:25;;;;;;;3.53;3.33;;;;;;;0.57;75.57;100390.53;5157743;28;20069;-81
2022/12/10 07:06:55;;;;;;;3.42;2.55;;;;;;;0.58;75.31;100396.56;5142301;28;20023;-81
2022/12/10 07:09:26;;;;;;;2.70;2.05;;;;;;;0.55;75.62;100410.28;5153072;28;20039;-83
2022/12/10 07:11:56;;;;;;;2.20;2.10;;;;;;;0.55;75.23;100412.03;5147522;28;20117;-82
2022/12/10 07:14:27;;;;;;;1.65;1.60;;;;;;;0.54;75.43;100408.56;5127820;28;20038;-82
2022/12/10 07:16:57;;;;;;;2.55;2.35;;;;;;;0.60;75.45;100410.34;5149048;28;20022;-81
2022/12/10 07:19:28;;;;;;;5.97;3.95;;;;;;;0.67;74.77;100400.94;5134523;28;20117;-80
2022/12/10 07:21:59;;;;;;;2.75;2.65;;;;;;;0.69;75.20;100409.56;5152520;28;20104;-84
2022/12/10 07:24:29;;;;;;;6.43;4.90;;;;;;;0.56;75.47;100406.84;5153771;28;20047;-83
2022/12/10 07:26:59;;;;;;;5.45;5.03;;;;;;;0.55;76.21;100406.84;5161358;28;20034;-81
2022/12/10 07:29:30;;;;;;;1.95;1.77;;;;;;;0.55;75.67;100406.84;5146828;28;20046;-82
2022/12/10 07:32:01;;;;;;;3.97;3.75;;;;;;;0.39;76.46;100408.41;5164689;28;20030;-84
2022/12/10 07:34:31;;;;;;;3.40;3.13;;;;;;;0.12;77.42;100408.16;5144664;28;20038;-85
2022/12/10 07:37:02;;;;;;;1.95;1.88;;;;;;;0.31;76.81;100414.38;5129626;28;20065;-83
2022/12/10 07:39:32;;;;;;;1.83;1.73;;;;;;;0.41;76.48;100411.88;5144913;28;20081;-82
2022/12/10 07:42:03;;;;;;;4.88;4.45;;;;;;;0.62;75.81;100419.81;5143647;28;20033;-84
2022/12/10 07:44:33;;;;;;;5.10;4.68;;;;;;;0.28;76.90;100419.53;5133708;28;20065;-83
2022/12/10 07:47:04;;;;;;;1.55;1.50;;;;;;;0.39;76.27;100421.31;5154201;28;20035;-86
2022/12/10 07:49:35;;;;;;;4.22;3.83;;;;;;;0.20;77.17;100415.13;5148891;28;20034;-81
2022/12/10 07:52:05;;;;;;;2.38;2.28;;;;;;;0.01;78.15;100421.78;5152058;28;20022;-85
2022/12/10 07:54:36;;;;;;;5.50;4.97;;;;;;;0.17;77.53;100421.13;5128786;28;20042;-84
2022/12/10 07:57:06;;;;;;;3.22;2.97;;;;;;;0.27;76.88;100417.78;5143259;28;20027;-83
2022/12/10 07:59:37;;;;;;;1.98;1.88;;;;;;;0.33;76.67;100432.47;5145163;28;20031;-82
2022/12/10 08:02:08;;;;;;;1.75;1.70;;;;;;;0.34;76.94;100431.59;5163198;28;20034;-85
2022/12/10 08:04:39;;;;;;;3.08;2.72;;;;;;;0.43;76.62;100433.41;5166425;28;20075;-83
2022/12/10 08:07:09;;;;;;;2.22;2.13;;;;;;;0.50;76.49;100434.34;5148763;28;20549;-83
2022/12/10 08:09:40;;;;;;;2.15;2.05;;;;;;;0.47;76.62;100435.16;5167715;28;20073;-83
2022/12/10 08:12:10;;;;;;;1.35;1.35;;;;;;;0.42;76.41;100432.53;5156123;28;20495;-87
2022/12/10 08:14:41;;;;;;;2.63;2.15;;;;;;;0.51;76.34;100442.09;5170727;28;20090;-82
2022/12/10 08:17:11;;;;;;;5.93;2.83;;;;;;;0.56;75.93;100442.16;5152589;28;20042;-80
2022/12/10 08:19:42;;;;;;;4.43;2.35;;;;;;;0.56;76.20;100435.25;5154978;28;20054;-81
2022/12/10 08:22:12;;;;;;;2.63;2.42;;;;;;;0.57;76.18;100447.31;5153382;28;20026;-83
2022/12/10 08:24:43;;;;;;;3.15;2.95;;;;;;;0.56;75.95;100455.91;5151099;28;20026;-83
2022/12/10 08:27:13;;;;;;;1.98;1.88;;;;;;;0.65;76.42;100464.59;5150305;28;20061;-80
2022/12/10 08:29:44;;;;;;;1.13;1.10;;;;;;;0.62;76.76;100463.72;5161198;28;20608;-84
2022/12/10 08:32:14;;;;;;;2.17;2.05;;;;;;;0.66;75.83;100456.00;5149696;28;20030;-83
2022/12/10 08:34:45;;;;;;;3.53;3.05;;;;;;;0.71;75.60;100462.06;5169952;28;20034;-83
2022/12/10 08:37:15;;;;;;;1.92;1.85;;;;;;;0.76;75.99;100460.41;5149621;28;20034;-81
2022/12/10 08:39:46;;;;;;;1.23;1.23;;;;;;;0.72;76.19;100461.22;5148585;28;20077;-84
2022/12/10 08:42:17;;;;;;;1.45;1.40;;;;;;;0.71;75.96;100460.38;5163463;28;20081;-81
2022/12/10 08:44:47;;;;;;;3.78;3.47;;;;;;;0.72;75.95;100462.09;5150426;28;20061;-81
2022/12/10 08:47:18;;;;;;;4.78;3.25;;;;;;;0.77;75.98;100469.91;5152826;28;20034;-81
2022/12/10 08:49:48;;;;;;;2.25;2.15;;;;;;;0.81;75.75;100478.53;5149132;28;20026;-82
2022/12/10 08:52:19;;;;;;;3.10;2.90;;;;;;;0.83;75.88;100475.09;5151389;28;20098;-81
2022/12/10 08:54:52;;;;;;;2.78;2.53;;;;;;;0.92;75.84;100485.53;5168527;28;20046;-83
2022/12/10 08:57:25;;;;;;;6.22;4.07;;;;;;;0.90;75.42;100481.19;5134604;28;20038;-80
2022/12/10 08:59:56;;;;;;;3.92;3.65;;;;;;;0.99;75.25;100483.00;5130811;28;20039;-82
2022/12/10 09:02:27;;;;;;;1.30;1.30;;;;;;;0.92;75.50;100484.63;5148038;28;20125;-81
2022/12/10 09:04:57;;;;;;;1.25;1.25;;;;;;;0.99;75.58;100494.19;5150387;28;20045;-80
2022/12/10 09:07:29;;;;;;;3.67;3.33;;;;;;;0.99;75.69;100485.56;5148413;28;20102;-85
2022/12/10 09:09:59;;;;;;;2.50;2.13;;;;;;;1.04;75.25;100487.34;5148710;28;20098;-85
2022/12/10 09:12:30;;;;;;;1.50;1.33;;;;;;;1.00;75.31;100495.06;5148561;28;20117;-82
2022/12/10 09:15:00;;;;;;;4.50;3.78;;;;;;;0.98;75.72;100489.00;5151310;28;20030;-82
2022/12/10 09:17:31;;;;;;;2.70;2.50;;;;;;;1.02;75.65;100491.63;5143408;28;20065;-86
2022/12/10 09:20:01;;;;;;;1.85;1.75;;;;;;;1.03;75.93;100497.69;5148656;28;20048;-86
2022/12/10 09:22:36;;;;;;;2.38;1.40;;;;;;;1.04;75.63;100502.84;5166617;28;20047;-82
2022/12/10 09:25:09;;;;;;;6.10;4.05;;;;;;;1.03;75.80;100495.09;5149862;28;20041;-82
2022/12/10 09:27:40;;;;;;;3.83;3.45;;;;;;;1.06;75.84;100497.69;5149126;28;20035;-83
2022/12/10 09:30:11;;;;;;;3.33;3.15;;;;;;;1.11;75.27;100501.19;5151239;28;20032;-81
2022/12/10 09:32:41;;;;;;;1.05;1.05;;;;;;;1.09;75.22;100497.72;5165785;28;20042;-86
2022/12/10 09:35:12;;;;;;;2.47;2.30;;;;;;;1.06;75.34;100502.84;5150965;28;20050;-86
2022/12/10 09:37:42;;;;;;;2.55;2.42;;;;;;;1.09;75.60;100503.75;5166211;28;20053;-82
2022/12/10 09:40:18;;;;;;;3.75;2.65;;;;;;;1.13;75.73;100494.28;5154840;28;20041;-81
2022/12/10 09:43:04;;;;;;;1.33;1.33;;;;;;;1.09;75.75;100500.31;5149378;28;20568;-81
2022/12/10 09:45:37;;;;;;;2.72;2.53;;;;;;;1.19;75.39;100493.47;5125413;28;20092;-81
2022/12/10 09:48:17;;;;;;;1.08;1.08;;;;;;;1.18;75.58;100495.22;5144162;28;20043;-81
2022/12/10 09:51:05;;;;;;;1.67;1.58;;;;;;;1.20;75.31;100493.47;5151863;28;20026;-82
2022/12/10 09:53:37;;;;;;;0.60;0.60;;;;;;;1.21;75.22;100497.81;5150658;28;20060;-83
2022/12/10 09:56:19;;;;;;;4.97;3.95;;;;;;;1.15;75.85;100496.91;5147911;28;20022;-85
2022/12/10 09:58:51;;;;;;;1.48;1.42;;;;;;;1.19;75.67;100496.94;5154374;28;20414;-79
2022/12/10 10:01:27;;;;;;;1.73;1.10;;;;;;;1.18;75.69;100496.91;5143454;28;20037;-80
2022/12/10 10:03:57;;;;;;;1.42;1.42;;;;;;;1.20;75.42;100500.38;5162173;28;20069;-79
2022/12/10 10:06:28;;;;;;;2.50;2.30;;;;;;;1.12;76.05;100497.72;5153619;28;20034;-82
2022/12/10 10:09:02;;;;;;;1.38;1.38;;;;;;;1.08;76.70;100496.84;5171274;28;20038;-83
2022/12/10 10:11:34;;;;;;;9.23;3.90;;;;;;;1.20;75.94;100496.06;5155579;28;20026;-87
2022/12/10 10:14:34;;;;;;;2.92;2.72;;;;;;;1.27;75.99;100496.13;5171455;28;20081;-85
2022/12/10 10:17:12;;;;;;;3.55;3.28;;;;;;;1.18;76.08;100496.91;5141501;28;20038;-83
2022/12/10 10:19:44;;;;;;;2.67;2.50;;;;;;;1.24;76.15;100502.16;5166416;28;20121;-81
2022/12/10 10:22:15;;;;;;;2.45;2.25;;;;;;;1.30;76.19;100501.31;5142740;28;20045;-83
2022/12/10 10:24:46;;;;;;;1.55;1.45;;;;;;;1.34;75.65;100497.91;5169955;28;20022;-85
2022/12/10 10:27:29;;;;;;;4.15;3.80;;;;;;;1.31;75.85;100496.19;5171105;28;20082;-80
2022/12/10 10:30:03;;;;;;;1.20;1.20;;;;;;;1.33;75.94;100493.59;5146689;28;20035;-80
2022/12/10 10:32:37;;;;;;;3.35;2.70;;;;;;;1.29;74.93;100494.41;5145677;28;20502;-82
2022/12/10 10:35:22;;;;;;;2.28;2.15;;;;;;;1.30;75.68;100499.59;5146114;28;20036;-79
2022/12/10 10:37:57;;;;;;;2.25;2.15;;;;;;;1.35;75.48;100499.66;5122440;28;20536;-79
2022/12/10 10:40:34;;;;;;;1.77;1.67;;;;;;;1.41;74.53;100494.50;5140061;28;20045;-79
2022/12/10 10:43:05;;;;;;;1.92;1.83;;;;;;;1.20;74.71;100500.38;5141210;28;20031;-79
2022/12/10 10:45:39;;;;;;;1.92;1.83;;;;;;;1.12;74.17;100500.31;5158741;28;20031;-80
2022/12/10 10:48:13;;;;;;;0.88;0.88;;;;;;;1.20;74.61;100501.22;5141120;28;20098;-79
2022/12/10 10:50:45;;;;;;;1.13;1.13;;;;;;;1.01;73.64;100500.22;5127263;28;20109;-79
2022/12/10 10:53:43;;;;;;;1.42;1.35;;;;;;;1.12;74.18;100492.56;5130823;28;20057;-80
2022/12/10 10:56:17;;;;;;;1.02;1.02;;;;;;;1.13;74.48;100499.47;5140828;28;20052;-79
2022/12/10 10:59:20;;;;;;;1.17;1.17;;;;;;;1.17;74.96;100483.13;5156512;28;20032;-80
2022/12/10 11:02:04;;;;;;;3.33;2.92;;;;;;;1.17;74.77;100495.19;5135850;28;20193;-79
2022/12/10 11:04:34;;;;;;;1.30;1.20;;;;;;;1.20;74.03;100501.22;5142050;28;20104;-81
2022/12/10 11:07:25;;;;;;;1.75;1.65;;;;;;;1.35;74.19;100504.81;5157729;28;20037;-80
2022/12/10 11:09:55;;;;;;;1.50;1.42;;;;;;;1.16;73.49;100509.84;5137708;28;20035;-80
2022/12/10 11:12:33;;;;;;;4.80;3.78;;;;;;;1.12;73.69;100504.63;5123979;28;20046;-80
2022/12/10 11:15:22;;;;;;;1.67;1.55;;;;;;;1.13;73.25;100503.78;5124855;28;20784;-81
2022/12/10 11:17:55;;;;;;;1.48;1.48;;;;;;;1.14;73.35;100495.19;5142591;28;20042;-81
2022/12/10 11:20:29;;;;;;;1.25;1.25;;;;;;;1.17;73.75;100501.22;5165942;28;20030;-81
2022/12/10 11:23:09;;;;;;;5.25;4.78;;;;;;;0.92;73.44;100503.59;5150548;28;20048;-81
2022/12/10 11:26:02;;;;;;;2.38;2.25;;;;;;;1.05;74.36;100501.13;5129617;28;20049;-80
2022/12/10 11:29:09;;;;;;;0.40;0.40;;;;;;;1.16;74.06;100493.47;5162661;28;20797;-80
2022/12/10 11:31:58;;;;;;;1.90;1.80;;;;;;;1.30;74.14;100503.91;5138948;28;20034;-80
2022/12/10 11:34:38;;;;;;;0.30;0.30;;;;;;;1.33;73.92;100506.50;5181400;28;20039;-81
2022/12/10 11:37:39;;;;;;;1.55;1.52;;;;;;;1.18;73.60;100497.78;5169516;28;20057;-81
2022/12/10 11:40:38;;;;;;;1.58;1.30;;;;;;;1.19;73.74;100494.38;5155024;28;20111;-81
2022/12/10 11:43:27;;;;;;;1.20;1.20;;;;;;;1.16;74.16;100494.31;5166832;28;20688;-81
2022/12/10 11:46:22;;;;;;;1.08;1.08;;;;;;;1.22;74.11;100493.50;5158359;28;20026;-80
2022/12/10 11:48:59;;;;;;;0.80;0.80;;;;;;;1.14;73.58;100501.19;5165322;28;20042;-80
2022/12/10 11:51:46;;;;;;;3.17;2.88;;;;;;;1.09;73.59;100502.88;5149427;28;20066;-81
2022/12/10 11:54:38;;;;;;;1.77;1.67;;;;;;;1.10;73.46;100499.47;5178060;28;20046;-80
2022/12/10 11:57:29;;;;;;;2.45;1.85;;;;;;;1.08;74.26;100501.16;5159701;28;20022;-82
2022/12/10 12:00:02;;;;;;;0.88;0.85;;;;;;;1.23;74.15;100496.09;5162436;28;20023;-80
2022/12/10 12:02:47;;;;;;;1.13;1.13;;;;;;;1.24;73.33;100497.84;5144894;28;20046;-81
2022/12/10 12:06:00;;;;;;;2.40;2.20;;;;;;;1.20;73.52;100501.22;5158768;28;20050;-81
2022/12/10 12:08:59;;;;;;;2.47;2.38;;;;;;;1.15;73.94;100494.31;5159290;28;20041;-80
2022/12/10 12:11:41;;;;;;;0.90;0.90;;;;;;;1.36;73.98;100496.22;5158539;28;20026;-81
2022/12/10 12:14:29;;;;;;;3.92;3.63;;;;;;;1.49;73.75;100495.44;5129783;28;20050;-80
2022/12/10 12:17:21;;;;;;;2.13;2.03;;;;;;;1.50;73.96;100496.28;5141283;28;20069;-80
2022/12/10 12:19:54;;;;;;;0.65;0.57;;;;;;;1.60;73.52;100497.22;5137041;28;20069;-81